Knoxville, Tennessee
Current Conditions -  °F | °C
As of 4:53 AM on Friday 24 Oct 2014 (Local Time) from KTYS Reporting Station
Overcast Overcast  
Wind Chill: 44°   Ceiling: 25000
Heat Index: 47°   Visibility: 10mi
Dew Point: 42°   Wind: 6mph
Humidity: 83%   Direction: 30°NNE
Pressure: 30.09"   Gusts: NA
Location:  35.96°N, 83.92°W
Report Text: KTYS 240853Z 03005KT 10SM OVC250 08/06 A3009 RMK AO2 SLP188 T00830056 53001
Loading
Personal Weather Stations






























Interactive Weather Map
Tropical Storm Tracking
New forecast layout! Learn more

10-Day Weather Forecast

Advertisements
Track Severe Weather on mobile